Time;durP1;ratioP1;P1;durP2;ratioP2;P2;SDS_P1;SDS_P2;PMS_P1;PMS_P2;Temp;Humidity;BMP_temperature;BMP_pressure;BME280_temperature;BME280_humidity;BME280_pressure;Samples;Min_cycle;Max_cycle;Signal;HPM_P1;HPM_P2
2022/09/18 00:02:08;;;;;;;6.45;1.48;;;9.80;99.90;;;;;;4825045;29;20059;-68
2022/09/18 00:04:34;;;;;;;9.27;1.63;;;9.80;99.90;;;;;;4823806;29;20175;-68
2022/09/18 00:06:59;;;;;;;4.15;1.00;;;9.70;99.90;;;;;;4824979;29;20145;-68
2022/09/18 00:09:25;;;;;;;8.43;1.48;;;9.70;99.90;;;;;;4807917;29;20187;-67
2022/09/18 00:11:50;;;;;;;8.93;1.98;;;9.70;99.90;;;;;;4807721;29;20085;-67
2022/09/18 00:14:20;;;;;;;5.43;1.23;;;9.70;99.90;;;;;;4824511;29;20535;-68
2022/09/18 00:16:46;;;;;;;7.18;1.40;;;9.60;99.90;;;;;;4825827;29;20107;-67
2022/09/18 00:19:13;;;;;;;6.05;1.48;;;9.60;99.90;;;;;;4792300;29;20081;-68
2022/09/18 00:21:44;;;;;;;8.32;1.80;;;9.60;99.90;;;;;;4806721;29;20153;-68
2022/09/18 00:24:10;;;;;;;4.95;1.58;;;9.50;99.90;;;;;;4809058;29;20050;-67
2022/09/18 00:26:37;;;;;;;9.82;1.67;;;9.50;99.90;;;;;;4823426;29;20039;-68
2022/09/18 00:29:03;;;;;;;4.07;1.20;;;9.50;99.90;;;;;;4822708;29;20113;-68
2022/09/18 00:31:32;;;;;;;9.55;1.60;;;9.40;99.90;;;;;;4825262;29;20392;-68
2022/09/18 00:34:00;;;;;;;8.05;1.45;;;9.40;99.90;;;;;;4824312;29;20058;-67
2022/09/18 00:36:26;;;;;;;10.55;1.45;;;9.40;99.90;;;;;;4793692;29;20078;-68
2022/09/18 00:38:52;;;;;;;5.13;1.40;;;9.40;99.90;;;;;;4824006;29;20077;-68
2022/09/18 00:41:24;;;;;;;9.02;1.58;;;9.40;99.90;;;;;;4807033;29;20070;-68
2022/09/18 00:44:00;;;;;;;11.13;1.90;;;9.50;99.90;;;;;;4823618;29;20058;-67
2022/09/18 00:46:31;;;;;;;9.05;1.38;;;9.50;99.90;;;;;;4824729;29;20129;-68
2022/09/18 00:49:14;;;;;;;8.35;1.85;;;9.50;99.90;;;;;;4819367;29;20047;-67
2022/09/18 00:51:40;;;;;;;7.22;1.90;;;9.50;99.90;;;;;;4823222;29;20377;-67
2022/09/18 00:54:28;;;;;;;10.23;1.65;;;9.50;99.90;;;;;;4825011;29;20391;-67
2022/09/18 00:57:02;;;;;;;7.55;1.60;;;9.60;99.90;;;;;;4822333;29;20038;-68
2022/09/18 00:59:31;;;;;;;7.90;1.45;;;9.60;99.90;;;;;;4822694;29;20199;-67
2022/09/18 01:01:58;;;;;;;8.18;1.52;;;9.60;99.90;;;;;;4823245;29;20106;-68
2022/09/18 01:04:24;;;;;;;9.50;1.83;;;9.60;99.90;;;;;;4824092;29;20050;-68
2022/09/18 01:06:59;;;;;;;8.80;1.73;;;9.60;99.90;;;;;;4806599;29;20058;-67
2022/09/18 01:09:41;;;;;;;13.95;1.80;;;9.60;99.90;;;;;;4823315;29;20058;-67
2022/09/18 01:12:15;;;;;;;7.57;1.67;;;9.60;99.90;;;;;;4807095;29;20388;-67
2022/09/18 01:15:07;;;;;;;8.48;2.17;;;9.60;99.90;;;;;;4824940;29;20068;-67
2022/09/18 01:17:52;;;;;;;10.90;1.98;;;9.60;99.90;;;;;;4823103;29;20065;-68
2022/09/18 01:20:48;;;;;;;6.85;2.08;;;9.60;99.90;;;;;;4807291;29;20091;-67
2022/09/18 01:23:37;;;;;;;11.77;2.25;;;9.60;99.90;;;;;;4823140;29;20046;-67
2022/09/18 01:26:26;;;;;;;8.05;1.70;;;9.70;99.90;;;;;;4807759;29;20058;-67
2022/09/18 01:29:04;;;;;;;4.50;1.10;;;9.70;99.90;;;;;;4807651;29;20054;-68
2022/09/18 01:31:43;;;;;;;7.93;1.55;;;9.80;99.90;;;;;;4805741;29;20064;-68
2022/09/18 01:34:19;;;;;;;8.82;1.90;;;9.80;99.90;;;;;;4810613;29;20078;-68
2022/09/18 01:36:51;;;;;;;8.45;1.63;;;9.80;99.90;;;;;;4823578;29;20092;-68
2022/09/18 01:39:28;;;;;;;7.90;1.88;;;9.80;99.90;;;;;;4806153;29;20073;-67
2022/09/18 01:41:55;;;;;;;5.18;1.55;;;9.90;99.90;;;;;;4807544;29;20503;-67
2022/09/18 01:44:27;;;;;;;9.60;1.75;;;9.90;99.90;;;;;;4807599;29;20054;-67
2022/09/18 01:46:56;;;;;;;4.82;1.55;;;10.00;99.90;;;;;;4824251;29;20062;-67
2022/09/18 01:49:37;;;;;;;6.25;1.40;;;10.00;99.90;;;;;;4822621;29;20053;-67
2022/09/18 01:52:25;;;;;;;3.28;1.20;;;10.00;99.90;;;;;;4808029;29;20124;-67
2022/09/18 01:54:54;;;;;;;4.75;1.27;;;10.10;99.90;;;;;;4807530;29;20062;-67
2022/09/18 01:58:02;;;;;;;7.65;2.30;;;10.10;99.90;;;;;;4824123;29;20090;-67
2022/09/18 02:00:30;;;;;;;9.30;1.80;;;10.10;99.90;;;;;;4822300;29;20102;-67
2022/09/18 02:03:08;;;;;;;6.93;1.38;;;10.10;99.90;;;;;;4823019;29;20375;-67
2022/09/18 02:05:42;;;;;;;5.90;1.38;;;10.20;99.90;;;;;;4823504;29;20111;-67
2022/09/18 02:08:19;;;;;;;7.35;1.60;;;10.20;99.90;;;;;;4807786;29;20106;-67
2022/09/18 02:10:51;;;;;;;4.72;1.73;;;10.10;99.90;;;;;;4807280;29;20480;-67
2022/09/18 02:13:20;;;;;;;5.32;1.73;;;10.20;99.90;;;;;;4823461;29;20060;-67
2022/09/18 02:15:48;;;;;;;6.93;1.40;;;10.10;99.90;;;;;;4823347;29;20054;-67
2022/09/18 02:18:20;;;;;;;5.72;1.23;;;10.20;99.90;;;;;;4822616;29;20090;-66
2022/09/18 02:20:46;;;;;;;6.82;1.10;;;10.20;99.90;;;;;;4822713;29;20434;-67
2022/09/18 02:23:13;;;;;;;8.60;1.80;;;10.10;99.90;;;;;;4806405;29;20046;-67
2022/09/18 02:25:44;;;;;;;5.28;1.15;;;10.20;99.90;;;;;;4822703;29;20073;-67
2022/09/18 02:28:13;;;;;;;10.32;1.55;;;10.10;99.90;;;;;;4823434;29;20070;-66
2022/09/18 02:30:39;;;;;;;7.50;1.55;;;10.10;99.90;;;;;;4820856;29;20129;-67
2022/09/18 02:33:26;;;;;;;6.10;1.48;;;10.10;99.90;;;;;;4804680;29;20046;-67
2022/09/18 02:36:09;;;;;;;6.85;1.48;;;10.20;99.90;;;;;;4823886;29;20038;-67
2022/09/18 02:39:13;;;;;;;10.15;1.40;;;10.20;99.90;;;;;;4821023;29;20496;-67
2022/09/18 02:42:00;;;;;;;8.90;1.63;;;10.20;99.90;;;;;;4758819;29;20046;-67
2022/09/18 02:44:53;;;;;;;6.60;1.42;;;10.30;99.90;;;;;;4796996;29;20118;-67
2022/09/18 02:47:50;;;;;;;5.88;1.17;;;10.30;99.90;;;;;;4825482;29;20125;-66
2022/09/18 02:50:40;;;;;;;5.68;1.30;;;10.30;99.90;;;;;;4827344;29;20053;-67
2022/09/18 02:53:17;;;;;;;8.45;1.20;;;10.30;99.90;;;;;;4823216;29;20058;-67
2022/09/18 02:55:51;;;;;;;7.65;1.35;;;10.30;99.90;;;;;;4813580;29;20353;-67
2022/09/18 02:58:28;;;;;;;4.70;1.25;;;10.30;99.90;;;;;;4826423;29;20058;-67
2022/09/18 03:00:56;;;;;;;6.47;1.38;;;10.30;99.90;;;;;;4826603;29;20103;-67
2022/09/18 03:03:26;;;;;;;6.70;1.60;;;10.30;99.90;;;;;;4824708;29;20096;-67
2022/09/18 03:05:51;;;;;;;6.85;1.10;;;10.30;99.90;;;;;;4811025;29;20084;-68
2022/09/18 03:08:18;;;;;;;7.18;1.30;;;10.30;99.90;;;;;;4824979;29;20035;-68
2022/09/18 03:10:43;;;;;;;5.13;1.15;;;10.30;99.90;;;;;;4807925;29;20402;-68
2022/09/18 03:13:09;;;;;;;9.02;1.23;;;10.40;99.90;;;;;;4825081;29;20050;-67
2022/09/18 03:15:34;;;;;;;7.85;1.10;;;10.40;99.90;;;;;;4826127;29;20061;-68
2022/09/18 03:18:00;;;;;;;5.43;1.38;;;10.40;99.90;;;;;;4825769;29;20408;-68
2022/09/18 03:20:26;;;;;;;8.93;1.30;;;10.50;99.90;;;;;;4826971;29;20396;-68
2022/09/18 03:22:51;;;;;;;8.73;1.23;;;10.50;99.90;;;;;;4808841;29;20153;-68
2022/09/18 03:25:17;;;;;;;8.35;1.10;;;10.60;99.90;;;;;;4811071;29;20054;-68
2022/09/18 03:27:43;;;;;;;8.75;1.52;;;10.60;99.90;;;;;;4825118;29;20043;-68
2022/09/18 03:30:09;;;;;;;5.13;1.58;;;10.70;99.90;;;;;;4810615;29;20057;-67
2022/09/18 03:32:34;;;;;;;6.95;1.17;;;10.70;99.90;;;;;;4809443;29;20480;-68
2022/09/18 03:35:00;;;;;;;4.75;1.05;;;10.60;99.90;;;;;;4809850;29;20061;-68
2022/09/18 03:37:25;;;;;;;6.38;1.27;;;10.70;99.90;;;;;;4815615;29;20395;-68
2022/09/18 03:39:51;;;;;;;3.97;1.10;;;10.70;99.90;;;;;;4824631;29;20433;-68
2022/09/18 03:42:16;;;;;;;7.57;1.50;;;10.70;99.90;;;;;;4825890;29;20050;-68
2022/09/18 03:44:42;;;;;;;7.55;1.55;;;10.70;99.90;;;;;;4824587;29;20055;-68
2022/09/18 03:47:08;;;;;;;5.45;1.23;;;10.70;99.90;;;;;;4810802;29;20069;-68
2022/09/18 03:49:34;;;;;;;6.55;1.20;;;10.70;99.90;;;;;;4824551;29;20061;-68
2022/09/18 03:52:00;;;;;;;4.15;1.10;;;10.70;99.90;;;;;;4824583;29;20054;-67
2022/09/18 03:54:25;;;;;;;6.10;1.17;;;10.70;99.90;;;;;;4823211;29;20403;-68
2022/09/18 03:56:51;;;;;;;6.75;1.48;;;10.60;99.90;;;;;;4824487;29;20153;-67
2022/09/18 03:59:16;;;;;;;5.75;1.40;;;10.60;99.90;;;;;;4823795;29;20053;-67
2022/09/18 04:01:42;;;;;;;6.40;1.33;;;10.60;99.90;;;;;;4815202;29;20077;-68
2022/09/18 04:04:08;;;;;;;3.80;0.90;;;10.60;99.90;;;;;;4823728;29;20122;-67
2022/09/18 04:06:33;;;;;;;6.00;0.90;;;10.60;99.90;;;;;;4823117;29;20434;-68
2022/09/18 04:08:59;;;;;;;6.00;1.20;;;10.60;99.90;;;;;;4823620;29;20042;-68
2022/09/18 04:11:24;;;;;;;3.33;1.08;;;10.60;99.90;;;;;;4823737;29;20092;-68
2022/09/18 04:13:50;;;;;;;3.88;1.10;;;10.60;99.90;;;;;;4824993;29;20046;-68
2022/09/18 04:16:15;;;;;;;8.50;1.40;;;10.60;99.90;;;;;;4824797;29;20077;-68
2022/09/18 04:18:41;;;;;;;6.38;1.13;;;10.60;99.90;;;;;;4825372;29;20049;-67
2022/09/18 04:21:06;;;;;;;6.07;1.38;;;10.60;99.90;;;;;;4825050;29;20054;-68
2022/09/18 04:23:32;;;;;;;7.07;1.20;;;10.60;99.90;;;;;;4824671;29;20137;-68
2022/09/18 04:59:13;;;;;;;7.90;1.15;;;10.40;99.90;;;;;;4771426;29;20484;-72
2022/09/18 05:32:24;;;;;;;9.90;1.65;;;10.30;99.90;;;;;;4738136;30;20148;-68
2022/09/18 05:34:50;;;;;;;7.95;1.45;;;10.60;99.90;;;;;;4758603;29;20522;-69
2022/09/18 05:37:18;;;;;;;5.32;0.88;;;10.60;99.90;;;;;;4794198;29;20564;-68
2022/09/18 05:39:44;;;;;;;4.50;1.17;;;10.60;99.90;;;;;;4788790;29;20070;-69
2022/09/18 05:42:10;;;;;;;4.60;1.20;;;10.50;99.90;;;;;;4796507;29;20064;-69
2022/09/18 05:44:35;;;;;;;2.10;0.80;;;10.50;99.90;;;;;;4797203;29;20051;-69
2022/09/18 05:47:01;;;;;;;7.25;1.33;;;10.60;99.90;;;;;;4800612;29;20043;-68
2022/09/18 05:49:27;;;;;;;2.78;0.93;;;10.50;99.90;;;;;;4788859;29;20080;-69
2022/09/18 05:51:55;;;;;;;4.60;0.82;;;10.50;99.90;;;;;;4790848;29;20093;-69
2022/09/18 05:54:21;;;;;;;5.88;1.20;;;10.50;99.90;;;;;;4775322;29;20043;-69
2022/09/18 05:56:46;;;;;;;6.97;1.20;;;10.50;99.90;;;;;;4787523;29;20039;-69
2022/09/18 05:59:13;;;;;;;4.50;1.00;;;10.50;99.90;;;;;;4776327;29;20046;-69
2022/09/18 06:01:38;;;;;;;4.22;1.20;;;10.50;99.90;;;;;;4789991;29;20147;-70
2022/09/18 06:04:04;;;;;;;7.15;1.38;;;10.50;99.90;;;;;;4787247;29;20160;-70
2022/09/18 06:06:30;;;;;;;4.55;1.30;;;10.40;99.90;;;;;;4802725;29;20063;-70
2022/09/18 06:08:56;;;;;;;5.18;1.23;;;10.40;99.90;;;;;;4811500;29;20485;-69
2022/09/18 06:11:21;;;;;;;8.13;1.30;;;10.50;99.90;;;;;;4823982;29;20047;-70
2022/09/18 06:13:51;;;;;;;9.07;1.15;;;10.40;99.90;;;;;;4807737;29;20054;-70
2022/09/18 06:16:18;;;;;;;8.25;1.20;;;10.40;99.90;;;;;;4805272;29;20085;-69
2022/09/18 06:18:43;;;;;;;3.60;1.08;;;10.50;99.90;;;;;;4812567;29;20119;-69
2022/09/18 06:21:13;;;;;;;2.70;1.02;;;10.50;99.90;;;;;;4818180;29;20100;-70
2022/09/18 06:23:40;;;;;;;5.20;1.00;;;10.50;99.90;;;;;;4804338;29;20045;-70
2022/09/18 06:26:06;;;;;;;5.60;1.00;;;10.50;99.90;;;;;;4815734;29;20127;-70
2022/09/18 06:28:33;;;;;;;3.55;1.20;;;10.50;99.90;;;;;;4812288;29;20332;-69
2022/09/18 06:31:01;;;;;;;5.15;1.42;;;10.50;99.90;;;;;;4800899;29;20084;-69
2022/09/18 06:33:28;;;;;;;7.45;1.65;;;10.50;99.90;;;;;;4810889;29;20526;-69
2022/09/18 06:35:55;;;;;;;8.70;1.40;;;10.50;99.90;;;;;;4799198;29;20054;-70
2022/09/18 06:38:20;;;;;;;3.83;1.00;;;10.50;99.90;;;;;;4817673;29;20038;-70
2022/09/18 06:40:53;;;;;;;8.50;1.40;;;10.50;99.90;;;;;;4810157;29;20394;-70
2022/09/18 06:43:19;;;;;;;4.65;0.82;;;10.50;99.90;;;;;;4816611;29;20049;-69
2022/09/18 06:45:54;;;;;;;7.85;1.50;;;10.50;99.90;;;;;;4818140;29;20117;-69
2022/09/18 06:48:21;;;;;;;7.00;1.20;;;10.50;99.90;;;;;;4801324;29;20076;-70
2022/09/18 06:50:55;;;;;;;7.53;1.25;;;10.60;99.90;;;;;;4813631;29;20043;-69
2022/09/18 06:53:22;;;;;;;3.05;1.02;;;10.60;99.90;;;;;;4813015;29;20511;-69
2022/09/18 06:55:48;;;;;;;6.80;1.13;;;10.60;99.90;;;;;;4807325;29;20295;-69
2022/09/18 06:58:19;;;;;;;1.25;0.90;;;10.60;99.90;;;;;;4806908;29;20054;-69
2022/09/18 07:00:46;;;;;;;3.70;1.33;;;10.60;99.90;;;;;;4817981;29;20050;-69
2022/09/18 07:03:11;;;;;;;3.97;0.90;;;10.60;99.90;;;;;;4816490;29;20050;-69
2022/09/18 07:05:46;;;;;;;5.05;1.10;;;10.60;99.90;;;;;;4815121;29;20062;-68
2022/09/18 07:08:19;;;;;;;6.22;1.08;;;10.60;99.90;;;;;;4813833;29;20058;-69
2022/09/18 07:10:46;;;;;;;7.38;1.50;;;10.60;99.90;;;;;;4811317;29;20046;-69
2022/09/18 07:13:12;;;;;;;4.35;0.95;;;10.70;99.90;;;;;;4798502;29;20110;-69
2022/09/18 07:19:22;;;;;;;5.70;1.63;;;10.40;99.90;;;;;;4790461;29;20119;-69
2022/09/18 07:21:47;;;;;;;4.35;1.00;;;10.70;99.90;;;;;;4813007;29;20318;-69
2022/09/18 07:28:13;;;;;;;4.65;1.02;;;10.60;99.90;;;;;;4805641;29;20099;-69
2022/09/18 07:30:39;;;;;;;4.18;0.90;;;10.80;99.90;;;;;;4795378;29;20050;-69
2022/09/18 07:33:07;;;;;;;7.22;1.38;;;10.80;99.90;;;;;;4826435;29;20387;-69
2022/09/18 07:35:33;;;;;;;6.45;1.20;;;10.80;99.90;;;;;;4810268;29;20050;-69
2022/09/18 07:37:59;;;;;;;5.38;1.00;;;10.80;99.90;;;;;;4825687;29;20539;-68
2022/09/18 07:40:26;;;;;;;6.65;1.40;;;10.80;99.90;;;;;;4818961;29;20093;-68
2022/09/18 07:42:52;;;;;;;4.60;1.10;;;10.80;99.90;;;;;;4817937;29;20038;-69
2022/09/18 07:45:18;;;;;;;3.10;1.13;;;10.90;99.90;;;;;;4814096;29;20488;-69
2022/09/18 07:47:44;;;;;;;6.15;1.20;;;10.90;99.90;;;;;;4807204;29;20054;-68
2022/09/18 07:50:14;;;;;;;6.68;1.40;;;10.90;99.90;;;;;;4823811;29;20467;-69
2022/09/18 07:52:48;;;;;;;3.10;1.20;;;10.90;99.90;;;;;;4815321;29;20508;-68
2022/09/18 07:55:14;;;;;;;3.88;0.88;;;10.90;99.90;;;;;;4825063;29;20480;-68
2022/09/18 07:57:39;;;;;;;5.95;1.10;;;10.90;99.90;;;;;;4809616;29;20061;-69
2022/09/18 08:00:07;;;;;;;5.18;1.00;;;10.90;99.90;;;;;;4826355;29;20050;-69
2022/09/18 08:02:32;;;;;;;3.63;0.90;;;10.80;99.90;;;;;;4810041;29;20061;-69
2022/09/18 08:04:58;;;;;;;5.70;1.40;;;10.80;99.90;;;;;;4809325;29;20067;-69
2022/09/18 08:07:24;;;;;;;4.38;1.08;;;10.80;99.90;;;;;;4823211;29;20050;-68
2022/09/18 08:09:49;;;;;;;5.72;1.20;;;10.80;99.90;;;;;;4811959;29;20053;-68
2022/09/18 08:12:15;;;;;;;5.30;1.10;;;10.70;99.90;;;;;;4829319;29;20123;-69
2022/09/18 08:14:40;;;;;;;3.42;0.88;;;10.70;99.90;;;;;;4820883;29;20042;-69
2022/09/18 08:17:06;;;;;;;4.70;1.17;;;10.70;99.90;;;;;;4827654;29;20043;-69
2022/09/18 08:19:31;;;;;;;2.88;1.08;;;10.70;99.90;;;;;;4825696;29;20437;-70
2022/09/18 08:21:57;;;;;;;6.78;1.30;;;10.70;99.90;;;;;;4824697;29;20413;-69
2022/09/18 08:24:23;;;;;;;2.55;1.15;;;10.70;99.90;;;;;;4808133;29;20069;-70
2022/09/18 08:26:49;;;;;;;6.30;1.10;;;10.70;99.90;;;;;;4808438;29;20136;-70
2022/09/18 08:29:17;;;;;;;9.43;1.58;;;10.70;99.90;;;;;;4808974;29;20133;-69
2022/09/18 08:31:43;;;;;;;6.90;1.17;;;10.70;99.90;;;;;;4825300;29;20551;-70
2022/09/18 08:34:09;;;;;;;4.47;0.93;;;10.80;99.90;;;;;;4808178;29;20052;-70
2022/09/18 08:36:34;;;;;;;4.97;1.50;;;10.80;99.90;;;;;;4825425;29;20050;-70
2022/09/18 08:39:00;;;;;;;3.50;1.20;;;10.80;99.90;;;;;;4825451;29;20046;-69
2022/09/18 08:41:44;;;;;;;6.40;1.98;;;10.90;99.90;;;;;;4824635;29;20054;-70
2022/09/18 08:44:15;;;;;;;5.60;1.45;;;10.90;99.90;;;;;;4824716;29;20073;-70
2022/09/18 08:46:49;;;;;;;5.43;1.50;;;11.00;99.90;;;;;;4824452;29;20118;-70
2022/09/18 08:49:28;;;;;;;6.95;1.60;;;11.00;99.90;;;;;;4808341;29;20115;-70
2022/09/18 08:52:15;;;;;;;5.68;1.63;;;11.10;99.90;;;;;;4825158;29;20058;-70
2022/09/18 08:54:58;;;;;;;4.95;1.30;;;11.10;99.90;;;;;;4825046;29;20072;-70
2022/09/18 08:57:29;;;;;;;5.47;1.27;;;11.20;99.90;;;;;;4807272;29;20047;-69
2022/09/18 08:59:57;;;;;;;3.00;0.95;;;11.20;99.90;;;;;;4825209;29;20094;-69
2022/09/18 09:02:36;;;;;;;5.45;1.40;;;11.20;99.90;;;;;;4808924;29;20064;-70
2022/09/18 09:05:06;;;;;;;3.63;1.17;;;11.20;99.90;;;;;;4825509;29;20060;-69
2022/09/18 09:07:49;;;;;;;5.15;1.17;;;11.20;99.90;;;;;;4823196;29;20408;-68
2022/09/18 09:10:38;;;;;;;5.68;1.20;;;11.20;99.90;;;;;;4824014;29;20108;-69
2022/09/18 09:13:24;;;;;;;2.45;1.00;;;11.20;99.90;;;;;;4824600;29;20065;-69
2022/09/18 09:16:38;;;;;;;4.20;1.42;;;11.20;99.90;;;;;;4810068;29;20424;-69
2022/09/18 09:19:33;;;;;;;4.70;1.25;;;11.20;99.90;;;;;;4797675;29;20054;-69
2022/09/18 09:22:15;;;;;;;3.47;0.95;;;11.30;99.90;;;;;;4806390;29;20042;-69
2022/09/18 09:24:44;;;;;;;5.35;1.38;;;11.30;99.90;;;;;;4790790;29;20038;-69
2022/09/18 09:27:18;;;;;;;4.55;1.10;;;11.30;99.90;;;;;;4775802;29;20050;-69
2022/09/18 09:29:45;;;;;;;5.05;1.38;;;11.40;99.90;;;;;;4804889;29;20062;-69
2022/09/18 09:32:32;;;;;;;2.80;1.08;;;11.40;99.90;;;;;;4824004;29;20432;-69
2022/09/18 09:35:20;;;;;;;5.72;1.02;;;11.40;99.90;;;;;;4815607;29;20066;-69
2022/09/18 09:37:47;;;;;;;5.05;0.85;;;11.50;99.90;;;;;;4822848;29;20046;-69
2022/09/18 09:40:31;;;;;;;4.85;1.10;;;11.50;99.90;;;;;;4824893;29;20054;-69
2022/09/18 09:43:40;;;;;;;4.13;1.25;;;11.50;99.90;;;;;;4824806;29;20439;-69
2022/09/18 09:46:25;;;;;;;3.90;1.15;;;11.50;99.90;;;;;;4824475;29;20083;-69
2022/09/18 09:49:05;;;;;;;3.17;1.25;;;11.50;99.90;;;;;;4807943;29;20133;-69
2022/09/18 09:51:51;;;;;;;6.10;0.98;;;11.50;99.90;;;;;;4823901;29;20051;-69
2022/09/18 09:54:20;;;;;;;4.38;1.10;;;11.50;99.90;;;;;;4821901;29;20046;-69
2022/09/18 09:57:23;;;;;;;3.50;1.05;;;11.50;99.90;;;;;;4824266;29;20122;-69
2022/09/18 09:59:58;;;;;;;3.50;1.10;;;11.50;99.90;;;;;;4824213;29;20050;-69
2022/09/18 10:02:42;;;;;;;4.10;1.02;;;11.50;99.90;;;;;;4822841;29;20470;-69
2022/09/18 10:05:16;;;;;;;3.00;0.90;;;11.50;99.90;;;;;;4823088;29;20069;-69
2022/09/18 10:07:48;;;;;;;6.60;1.20;;;11.50;99.90;;;;;;4821388;29;20055;-69
2022/09/18 10:10:14;;;;;;;;;;;11.40;99.90;;;;;;4824350;29;20058;-69
2022/09/18 10:13:00;;;;;;;6.00;1.50;;;11.40;99.90;;;;;;4823513;29;20380;-68
2022/09/18 10:15:34;;;;;;;4.25;1.20;;;11.40;99.90;;;;;;4813471;29;20070;-69
2022/09/18 10:18:04;;;;;;;5.13;1.42;;;11.40;99.90;;;;;;4812617;29;20042;-69
2022/09/18 10:20:31;;;;;;;3.13;1.10;;;11.40;99.90;;;;;;4823554;29;20125;-68
2022/09/18 10:23:39;;;;;;;7.40;1.40;;;11.40;99.90;;;;;;4813981;29;20107;-69
2022/09/18 10:26:09;;;;;;;2.25;1.10;;;11.40;99.90;;;;;;4799104;29;20118;-69
2022/09/18 10:28:34;;;;;;;3.83;1.05;;;11.50;99.90;;;;;;4823744;29;20142;-69
2022/09/18 10:31:03;;;;;;;7.15;1.20;;;11.50;99.90;;;;;;4808143;29;20129;-68
2022/09/18 10:33:43;;;;;;;6.28;1.30;;;11.50;99.90;;;;;;4823472;29;20061;-69
2022/09/18 10:36:24;;;;;;;6.45;1.08;;;11.60;99.90;;;;;;4805591;29;20476;-69
2022/09/18 10:38:50;;;;;;;5.13;1.20;;;11.70;99.90;;;;;;4822463;29;20046;-68
2022/09/18 10:41:34;;;;;;;2.55;1.05;;;11.70;99.90;;;;;;4823266;29;20046;-68
2022/09/18 10:44:10;;;;;;;2.88;1.02;;;11.70;99.90;;;;;;4816962;29;20062;-69
2022/09/18 10:46:48;;;;;;;4.03;1.15;;;11.70;99.90;;;;;;4823671;29;20121;-69
2022/09/18 10:49:28;;;;;;;7.03;1.80;;;11.80;99.90;;;;;;4822386;29;20078;-68
2022/09/18 10:52:34;;;;;;;2.20;1.33;;;11.80;99.90;;;;;;4823457;29;20404;-68
2022/09/18 10:55:06;;;;;;;3.95;1.58;;;11.80;99.90;;;;;;4811346;29;20055;-69
2022/09/18 10:57:34;;;;;;;6.07;1.43;;;11.90;99.90;;;;;;4823418;29;20050;-69
2022/09/18 11:00:05;;;;;;;3.95;1.02;;;11.90;99.90;;;;;;4823618;29;20047;-69
2022/09/18 11:02:38;;;;;;;6.07;1.33;;;11.90;99.90;;;;;;4821386;29;20039;-69
2022/09/18 11:05:14;;;;;;;5.53;1.63;;;11.90;99.90;;;;;;4824845;29;20377;-70
2022/09/18 11:07:59;;;;;;;5.55;1.50;;;12.00;99.90;;;;;;4825321;29;20047;-69
2022/09/18 11:10:28;;;;;;;2.72;1.00;;;12.00;99.90;;;;;;4826507;29;20085;-69
2022/09/18 11:12:56;;;;;;;5.35;1.27;;;12.00;99.90;;;;;;4827005;29;20125;-69
2022/09/18 11:15:26;;;;;;;3.95;1.00;;;12.00;99.90;;;;;;4826846;29;20057;-70
2022/09/18 11:17:54;;;;;;;5.47;1.75;;;12.00;99.90;;;;;;4827002;29;20093;-69
2022/09/18 11:20:22;;;;;;;5.45;1.20;;;11.90;99.90;;;;;;4827034;29;20054;-70
2022/09/18 11:22:48;;;;;;;5.75;1.10;;;12.00;99.90;;;;;;4826538;29;20480;-69
2022/09/18 11:25:19;;;;;;;5.15;1.25;;;12.00;99.90;;;;;;4824626;29;20038;-70
2022/09/18 11:27:44;;;;;;;5.85;1.33;;;12.00;99.90;;;;;;4820415;29;20034;-69
2022/09/18 11:30:15;;;;;;;5.25;1.40;;;12.00;99.90;;;;;;4797602;29;20051;-69
2022/09/18 11:32:45;;;;;;;5.88;1.30;;;12.00;99.90;;;;;;4790843;29;20070;-70
2022/09/18 11:35:17;;;;;;;7.22;1.40;;;12.10;99.90;;;;;;4809010;29;20050;-70
2022/09/18 11:37:50;;;;;;;6.07;1.20;;;12.20;99.90;;;;;;4825367;29;20042;-70
2022/09/18 11:40:28;;;;;;;3.63;1.33;;;12.20;99.90;;;;;;4810103;29;20038;-70
2022/09/18 11:43:04;;;;;;;5.43;1.27;;;12.30;99.90;;;;;;4825581;29;20075;-70
2022/09/18 11:49:53;;;;;;;4.90;2.83;;;12.20;99.90;;;;;;4813085;29;20410;-70
2022/09/18 11:52:29;;;;;;;4.82;1.10;;;12.40;99.90;;;;;;4817746;29;20081;-70
2022/09/18 11:55:02;;;;;;;7.60;1.55;;;12.40;99.90;;;;;;4825848;29;20046;-69
2022/09/18 11:57:38;;;;;;;5.72;1.23;;;12.50;99.90;;;;;;4824948;29;20578;-69
2022/09/18 12:00:11;;;;;;;5.78;1.13;;;12.50;99.90;;;;;;4822931;29;20054;-70
2022/09/18 12:03:02;;;;;;;4.95;1.20;;;12.60;99.90;;;;;;4825013;29;20065;-69
2022/09/18 12:05:46;;;;;;;6.70;1.40;;;12.60;99.90;;;;;;4807750;29;20138;-70
2022/09/18 12:08:24;;;;;;;6.30;1.67;;;12.80;99.90;;;;;;4821470;29;20046;-69
2022/09/18 12:11:20;;;;;;;5.68;1.40;;;12.80;99.90;;;;;;4829092;29;20046;-69
2022/09/18 12:14:12;;;;;;;3.75;1.00;;;13.00;99.90;;;;;;4825262;29;20050;-69
2022/09/18 12:16:53;;;;;;;3.95;1.20;;;13.00;99.90;;;;;;4823542;29;20057;-69
2022/09/18 12:19:28;;;;;;;3.30;1.40;;;13.10;99.90;;;;;;4825923;29;20058;-69
2022/09/18 12:22:15;;;;;;;7.95;1.40;;;13.10;99.90;;;;;;4822352;29;20488;-69
2022/09/18 12:24:41;;;;;;;3.25;1.30;;;13.20;99.90;;;;;;4825421;29;20106;-69
2022/09/18 12:27:19;;;;;;;7.40;1.67;;;13.20;99.90;;;;;;4825284;29;20042;-69
2022/09/18 12:30:09;;;;;;;5.38;1.30;;;13.30;99.90;;;;;;4823621;29;20050;-69
2022/09/18 12:33:18;;;;;;;2.90;1.33;;;13.30;99.90;;;;;;4817137;29;20069;-69
2022/09/18 12:36:07;;;;;;;6.90;1.80;;;13.40;99.90;;;;;;4818325;29;20058;-69
2022/09/18 12:39:03;;;;;;;4.25;1.33;;;13.40;99.90;;;;;;4767286;29;20095;-69
2022/09/18 12:41:31;;;;;;;6.20;1.40;;;13.40;99.90;;;;;;4825281;29;20053;-69
2022/09/18 12:44:23;;;;;;;3.88;1.20;;;13.50;99.90;;;;;;4808425;29;20046;-69
2022/09/18 12:47:14;;;;;;;7.05;1.95;;;13.50;99.90;;;;;;4791008;29;20050;-69
2022/09/18 12:49:54;;;;;;;6.30;1.40;;;13.50;99.90;;;;;;4807255;29;20046;-69
2022/09/18 12:56:18;;;;;;;5.80;1.40;;;13.40;99.90;;;;;;4824423;29;20055;-69
2022/09/18 12:59:15;;;;;;;7.95;1.70;;;13.40;99.90;;;;;;4808872;29;20050;-69
2022/09/18 13:01:47;;;;;;;8.85;1.65;;;13.40;99.90;;;;;;4825042;29;20054;-68
2022/09/18 13:04:22;;;;;;;4.25;1.42;;;13.40;99.90;;;;;;4825345;29;20503;-68
2022/09/18 13:07:11;;;;;;;8.90;1.92;;;13.40;99.90;;;;;;4808620;29;20392;-68
2022/09/18 13:10:13;;;;;;;2.72;1.25;;;13.40;99.90;;;;;;4824030;29;20062;-69
2022/09/18 13:12:57;;;;;;;5.28;1.50;;;13.30;99.90;;;;;;4825102;29;20480;-68
2022/09/18 13:15:32;;;;;;;5.53;1.48;;;13.30;99.90;;;;;;4824856;29;20098;-69
2022/09/18 13:18:28;;;;;;;7.45;1.90;;;13.30;99.90;;;;;;4824362;29;20129;-69
2022/09/18 13:21:44;;;;;;;4.30;1.33;;;13.20;99.90;;;;;;4824834;29;20079;-68
2022/09/18 13:24:15;;;;;;;3.65;1.27;;;13.20;99.90;;;;;;4808666;29;20504;-69
2022/09/18 13:26:44;;;;;;;8.10;1.52;;;13.30;99.90;;;;;;4824999;29;20054;-69
2022/09/18 13:29:47;;;;;;;5.47;1.50;;;13.30;99.90;;;;;;4822902;29;20114;-69
2022/09/18 13:32:17;;;;;;;8.32;1.30;;;13.30;99.90;;;;;;4806626;29;20054;-69
2022/09/18 13:34:53;;;;;;;6.20;1.15;;;13.30;99.90;;;;;;4824705;29;20069;-68
2022/09/18 13:37:21;;;;;;;8.48;2.15;;;13.30;99.90;;;;;;4824255;29;20066;-69
2022/09/18 13:39:56;;;;;;;6.25;1.80;;;13.20;99.90;;;;;;4822208;29;20439;-69
2022/09/18 13:42:31;;;;;;;9.30;1.52;;;13.30;99.90;;;;;;4823936;29;20425;-69
2022/09/18 13:45:06;;;;;;;7.15;1.10;;;13.20;99.90;;;;;;4838276;29;20110;-68
2022/09/18 13:47:36;;;;;;;6.82;1.50;;;13.10;99.90;;;;;;4823242;29;20217;-69
2022/09/18 13:50:04;;;;;;;5.82;1.40;;;13.10;99.90;;;;;;4813363;29;20038;-69
2022/09/18 13:52:32;;;;;;;5.88;1.83;;;13.20;99.90;;;;;;4823853;29;20098;-69
2022/09/18 13:55:00;;;;;;;8.73;1.42;;;13.20;99.90;;;;;;4817959;29;20054;-69
2022/09/18 13:57:30;;;;;;;6.32;1.20;;;13.20;99.90;;;;;;4824561;29;20421;-69
2022/09/18 14:00:00;;;;;;;4.13;0.90;;;13.20;99.90;;;;;;4824683;29;20065;-68
2022/09/18 14:02:25;;;;;;;9.25;1.65;;;13.20;99.90;;;;;;4824201;29;20509;-68
2022/09/18 14:05:00;;;;;;;5.18;0.95;;;13.10;99.90;;;;;;4823194;29;20093;-69
2022/09/18 14:07:25;;;;;;;4.72;1.30;;;13.20;99.90;;;;;;4822863;29;20054;-68
2022/09/18 14:09:53;;;;;;;4.78;1.20;;;13.10;99.90;;;;;;4806179;29;20190;-68
2022/09/18 14:12:20;;;;;;;9.30;1.40;;;13.20;99.90;;;;;;4823823;29;20133;-69
2022/09/18 14:15:18;;;;;;;6.88;1.30;;;13.10;99.90;;;;;;4824072;29;20064;-68
2022/09/18 14:18:12;;;;;;;5.70;1.45;;;13.20;99.90;;;;;;4818067;29;20050;-68
2022/09/18 14:20:37;;;;;;;8.05;1.75;;;13.20;99.90;;;;;;4789964;29;20055;-68
2022/09/18 14:23:40;;;;;;;3.30;1.20;;;13.20;99.90;;;;;;4820051;29;20046;-68
2022/09/18 14:26:27;;;;;;;5.50;1.45;;;13.20;99.90;;;;;;4823748;29;20054;-68
2022/09/18 14:28:54;;;;;;;4.70;1.20;;;13.30;99.90;;;;;;4818276;29;20046;-68
2022/09/18 14:31:26;;;;;;;6.78;1.85;;;13.30;99.90;;;;;;4793306;29;20038;-68
2022/09/18 14:33:53;;;;;;;5.72;1.48;;;13.30;99.90;;;;;;4815435;29;20054;-68
2022/09/18 14:36:19;;;;;;;5.68;1.20;;;13.40;99.90;;;;;;4823232;29;20059;-68
2022/09/18 14:38:44;;;;;;;7.57;1.65;;;13.40;99.90;;;;;;4824183;29;20062;-68
2022/09/18 14:41:22;;;;;;;6.03;1.42;;;13.40;99.90;;;;;;4827564;29;20049;-68